Time;durP1;ratioP1;P1;durP2;ratioP2;P2;SDS_P1;SDS_P2;PMS_P1;PMS_P2;Temp;Humidity;BMP_temperature;BMP_pressure;BME280_temperature;BME280_humidity;BME280_pressure;Samples;Min_cycle;Max_cycle;Signal;HPM_P1;HPM_P2
2023/04/09 00:01:22;;;;;;;26.98;14.18;;;;;;;;;;5054718;28;20053;-77
2023/04/09 00:03:47;;;;;;;27.90;14.37;;;;;;;;;;5054779;28;20012;-77
2023/04/09 00:06:12;;;;;;;25.90;13.13;;;;;;;;;;5053342;28;20265;-76
2023/04/09 00:08:38;;;;;;;24.23;13.07;;;;;;;;;;5054557;28;20254;-76
2023/04/09 00:11:03;;;;;;;26.10;13.70;;;;;;;;;;5054171;28;20269;-76
2023/04/09 00:13:28;;;;;;;22.90;13.45;;;;;;;;;;5052915;28;20257;-76
2023/04/09 00:15:54;;;;;;;27.67;13.95;;;;;;;;;;5054160;28;20021;-76
2023/04/09 00:18:19;;;;;;;21.60;13.05;;;;;;;;;;5054128;28;20021;-77
2023/04/09 00:20:44;;;;;;;24.75;13.57;;;;;;;;;;5054474;28;20035;-76
2023/04/09 00:23:10;;;;;;;24.38;13.93;;;;;;;;;;5054542;28;20032;-76
2023/04/09 00:25:35;;;;;;;24.13;13.50;;;;;;;;;;5052581;28;20029;-75
2023/04/09 00:28:00;;;;;;;28.73;13.60;;;;;;;;;;5053909;28;20025;-75
2023/04/09 00:30:29;;;;;;;24.80;13.93;;;;;;;;;;5053837;28;20021;-75
2023/04/09 00:32:54;;;;;;;24.27;13.95;;;;;;;;;;5053702;28;20044;-75
2023/04/09 00:35:20;;;;;;;26.33;13.70;;;;;;;;;;5052491;28;20484;-75
2023/04/09 00:37:45;;;;;;;24.15;12.80;;;;;;;;;;5053715;28;20725;-75
2023/04/09 00:40:11;;;;;;;22.55;13.60;;;;;;;;;;5053921;28;20426;-76
2023/04/09 00:42:36;;;;;;;24.38;13.20;;;;;;;;;;5052255;28;20021;-75
2023/04/09 00:45:02;;;;;;;22.58;12.77;;;;;;;;;;5052317;28;20070;-75
2023/04/09 00:47:29;;;;;;;24.67;13.35;;;;;;;;;;5053733;28;20029;-75
2023/04/09 00:49:55;;;;;;;24.50;12.90;;;;;;;;;;5052174;28;20400;-75
2023/04/09 00:52:20;;;;;;;25.52;13.05;;;;;;;;;;5053782;28;20021;-75
2023/04/09 00:54:48;;;;;;;23.85;13.05;;;;;;;;;;5053340;28;20540;-75
2023/04/09 00:57:14;;;;;;;23.90;13.23;;;;;;;;;;5053316;28;20109;-75
2023/04/09 00:59:39;;;;;;;22.80;13.15;;;;;;;;;;5052021;28;20102;-76
2023/04/09 01:02:05;;;;;;;27.15;13.48;;;;;;;;;;5053184;28;20366;-75
2023/04/09 01:04:30;;;;;;;29.48;13.98;;;;;;;;;;5053291;28;20025;-76
2023/04/09 01:07:07;;;;;;;22.80;13.68;;;;;;;;;;5053818;28;20115;-75
2023/04/09 01:09:37;;;;;;;22.42;12.50;;;;;;;;;;5053536;28;20024;-76
2023/04/09 01:12:29;;;;;;;25.98;13.20;;;;;;;;;;5052969;28;20037;-76
2023/04/09 01:15:09;;;;;;;26.42;13.95;;;;;;;;;;5053139;28;20027;-76
2023/04/09 01:18:03;;;;;;;24.23;13.10;;;;;;;;;;5053052;28;20052;-76
2023/04/09 01:20:42;;;;;;;23.25;13.25;;;;;;;;;;5051913;28;20095;-76
2023/04/09 01:23:28;;;;;;;23.52;12.63;;;;;;;;;;5051746;28;20033;-77
2023/04/09 01:26:05;;;;;;;22.17;12.45;;;;;;;;;;5051790;28;20029;-77
2023/04/09 01:28:33;;;;;;;24.77;13.60;;;;;;;;;;5053312;28;20025;-76
2023/04/09 01:31:08;;;;;;;26.52;14.13;;;;;;;;;;5052838;28;20028;-76
2023/04/09 01:33:34;;;;;;;25.13;13.40;;;;;;;;;;5052878;28;20017;-76
2023/04/09 01:36:01;;;;;;;28.13;13.13;;;;;;;;;;5051653;28;20387;-76
2023/04/09 01:38:27;;;;;;;25.98;13.95;;;;;;;;;;5052672;28;20025;-77
2023/04/09 01:40:55;;;;;;;25.80;13.93;;;;;;;;;;5053027;28;20029;-76
2023/04/09 01:43:21;;;;;;;24.08;13.90;;;;;;;;;;5051568;28;20025;-76
2023/04/09 01:45:47;;;;;;;26.88;13.70;;;;;;;;;;5052834;28;20033;-77
2023/04/09 01:48:13;;;;;;;25.77;13.38;;;;;;;;;;5053029;28;20071;-77
2023/04/09 01:50:39;;;;;;;25.35;14.05;;;;;;;;;;5052766;28;20036;-76
2023/04/09 01:53:05;;;;;;;27.25;14.30;;;;;;;;;;5052987;28;20100;-76
2023/04/09 01:55:30;;;;;;;29.33;14.43;;;;;;;;;;5051421;28;20021;-75
2023/04/09 01:57:55;;;;;;;25.33;13.80;;;;;;;;;;5052977;28;20028;-76
2023/04/09 02:00:22;;;;;;;26.70;14.23;;;;;;;;;;5052995;28;20021;-77
2023/04/09 02:02:55;;;;;;;28.88;14.88;;;;;;;;;;5052619;28;20029;-76
2023/04/09 02:05:25;;;;;;;26.10;14.77;;;;;;;;;;5052937;28;20056;-77
2023/04/09 02:07:56;;;;;;;26.08;14.52;;;;;;;;;;5052927;28;20041;-77
2023/04/09 02:10:25;;;;;;;24.90;14.60;;;;;;;;;;5052589;28;20021;-77
2023/04/09 02:12:51;;;;;;;28.83;15.15;;;;;;;;;;5052400;28;20116;-76
2023/04/09 02:15:18;;;;;;;27.75;14.68;;;;;;;;;;5051201;28;20038;-78
2023/04/09 02:17:44;;;;;;;26.63;14.90;;;;;;;;;;5051236;28;20029;-76
2023/04/09 02:20:10;;;;;;;27.95;14.50;;;;;;;;;;5051213;28;20491;-75
2023/04/09 02:22:35;;;;;;;28.73;14.50;;;;;;;;;;5052300;28;20031;-76
2023/04/09 02:25:00;;;;;;;27.00;14.43;;;;;;;;;;5052426;28;20108;-76
2023/04/09 02:27:25;;;;;;;24.58;14.05;;;;;;;;;;5052350;28;20063;-76
2023/04/09 02:29:51;;;;;;;27.77;14.30;;;;;;;;;;5052343;28;20036;-76
2023/04/09 02:32:16;;;;;;;28.10;14.13;;;;;;;;;;5052489;28;20288;-76
2023/04/09 02:34:41;;;;;;;26.45;14.60;;;;;;;;;;5051012;28;20289;-76
2023/04/09 02:37:06;;;;;;;27.02;15.40;;;;;;;;;;5052284;28;20472;-75
2023/04/09 02:39:32;;;;;;;27.23;14.85;;;;;;;;;;5052592;28;20431;-76
2023/04/09 02:41:57;;;;;;;26.60;14.30;;;;;;;;;;5052431;28;20051;-76
2023/04/09 02:44:22;;;;;;;25.40;14.77;;;;;;;;;;5052493;28;20017;-76
2023/04/09 02:46:50;;;;;;;28.00;15.25;;;;;;;;;;5052193;28;20025;-76
2023/04/09 02:49:15;;;;;;;27.40;15.02;;;;;;;;;;5053178;28;20480;-76
2023/04/09 02:51:40;;;;;;;29.98;15.13;;;;;;;;;;5055659;28;20021;-76
2023/04/09 02:54:05;;;;;;;32.28;15.23;;;;;;;;;;5055775;28;20033;-77
2023/04/09 02:56:31;;;;;;;28.05;14.32;;;;;;;;;;5056212;28;20130;-76
2023/04/09 02:58:56;;;;;;;28.25;14.77;;;;;;;;;;5056093;28;20032;-76
2023/04/09 03:01:21;;;;;;;24.25;14.07;;;;;;;;;;5055512;28;20400;-76
2023/04/09 03:03:47;;;;;;;32.22;15.43;;;;;;;;;;5055615;28;20384;-77
2023/04/09 03:06:12;;;;;;;26.15;13.98;;;;;;;;;;5054290;28;20037;-75
2023/04/09 03:08:37;;;;;;;25.33;14.55;;;;;;;;;;5055513;28;20025;-75
2023/04/09 03:11:02;;;;;;;30.40;15.05;;;;;;;;;;5055400;28;20078;-75
2023/04/09 03:13:28;;;;;;;27.73;14.27;;;;;;;;;;5055383;28;20041;-76
2023/04/09 03:15:53;;;;;;;31.88;14.15;;;;;;;;;;5054012;28;20488;-76
2023/04/09 03:18:19;;;;;;;22.17;13.18;;;;;;;;;;5053972;28;20028;-76
2023/04/09 03:20:44;;;;;;;29.55;14.80;;;;;;;;;;5053800;28;20119;-76
2023/04/09 03:23:10;;;;;;;25.70;14.35;;;;;;;;;;5055455;28;20503;-76
2023/04/09 03:25:35;;;;;;;23.98;13.73;;;;;;;;;;5055379;28;20033;-75
2023/04/09 03:28:00;;;;;;;24.60;13.82;;;;;;;;;;5053831;28;20559;-76
2023/04/09 03:30:25;;;;;;;25.42;14.27;;;;;;;;;;5055074;28;20496;-77
2023/04/09 03:32:51;;;;;;;26.27;14.07;;;;;;;;;;5055130;28;20143;-75
2023/04/09 03:35:16;;;;;;;25.65;14.48;;;;;;;;;;5055084;28;20032;-75
2023/04/09 03:37:41;;;;;;;26.45;14.70;;;;;;;;;;5055105;28;20033;-75
2023/04/09 03:40:07;;;;;;;25.92;14.85;;;;;;;;;;5054810;28;20110;-75
2023/04/09 03:42:33;;;;;;;23.80;13.68;;;;;;;;;;5054706;28;20028;-75
2023/04/09 03:44:59;;;;;;;24.58;13.38;;;;;;;;;;5053653;28;20027;-76
2023/04/09 03:47:24;;;;;;;28.90;14.23;;;;;;;;;;5055158;28;20029;-75
2023/04/09 03:49:49;;;;;;;25.83;13.90;;;;;;;;;;5055284;28;20087;-75
2023/04/09 03:52:14;;;;;;;26.27;14.30;;;;;;;;;;5054984;28;20029;-75
2023/04/09 03:54:40;;;;;;;24.55;13.85;;;;;;;;;;5054550;28;20044;-75
2023/04/09 03:57:05;;;;;;;25.27;14.95;;;;;;;;;;5054530;28;20032;-75
2023/04/09 03:59:30;;;;;;;27.98;14.18;;;;;;;;;;5054402;28;20553;-76
2023/04/09 04:01:55;;;;;;;28.88;14.15;;;;;;;;;;5054069;28;20024;-75
2023/04/09 04:04:20;;;;;;;28.15;14.02;;;;;;;;;;5054639;28;20021;-76
2023/04/09 04:06:46;;;;;;;26.00;14.43;;;;;;;;;;5054329;28;20036;-76
2023/04/09 04:09:11;;;;;;;30.20;13.98;;;;;;;;;;5054303;28;20029;-76
2023/04/09 04:11:36;;;;;;;23.98;13.40;;;;;;;;;;5054080;28;20430;-76
2023/04/09 04:14:01;;;;;;;25.17;14.33;;;;;;;;;;5054166;28;20029;-76
2023/04/09 04:16:26;;;;;;;27.27;15.05;;;;;;;;;;5054423;28;20253;-76
2023/04/09 04:18:52;;;;;;;25.23;14.68;;;;;;;;;;5054126;28;20029;-77
2023/04/09 04:21:17;;;;;;;29.83;14.68;;;;;;;;;;5054275;28;20033;-76
2023/04/09 04:23:42;;;;;;;28.20;14.60;;;;;;;;;;5054136;28;20072;-76
2023/04/09 04:26:09;;;;;;;28.02;15.88;;;;;;;;;;5052630;28;20021;-76
2023/04/09 04:28:35;;;;;;;25.00;13.88;;;;;;;;;;5053979;28;20495;-76
2023/04/09 04:31:00;;;;;;;28.85;14.43;;;;;;;;;;5053351;28;20031;-76
2023/04/09 04:33:26;;;;;;;24.88;14.20;;;;;;;;;;5052476;28;20103;-76
2023/04/09 04:35:51;;;;;;;26.63;13.93;;;;;;;;;;5053786;28;20484;-76
2023/04/09 04:38:16;;;;;;;26.80;14.20;;;;;;;;;;5053783;28;20036;-76
2023/04/09 04:40:41;;;;;;;28.50;14.60;;;;;;;;;;5053927;28;20455;-75
2023/04/09 04:43:07;;;;;;;23.95;14.02;;;;;;;;;;5053611;28;20020;-77
2023/04/09 04:45:32;;;;;;;27.65;13.95;;;;;;;;;;5053674;28;20024;-76
2023/04/09 04:47:57;;;;;;;23.50;13.32;;;;;;;;;;5052690;28;20020;-76
2023/04/09 04:50:22;;;;;;;25.33;14.45;;;;;;;;;;5053830;28;20032;-76
2023/04/09 04:52:48;;;;;;;25.75;14.35;;;;;;;;;;5052082;28;20021;-76
2023/04/09 04:55:13;;;;;;;26.58;13.68;;;;;;;;;;5053745;28;20063;-77
2023/04/09 04:57:38;;;;;;;25.73;13.50;;;;;;;;;;5052177;28;20035;-77
2023/04/09 05:00:04;;;;;;;25.85;13.95;;;;;;;;;;5052104;28;20066;-77
2023/04/09 05:02:29;;;;;;;24.65;12.35;;;;;;;;;;5053233;28;20107;-77
2023/04/09 05:04:54;;;;;;;24.73;13.73;;;;;;;;;;5053300;28;20028;-76
2023/04/09 05:07:19;;;;;;;22.83;13.07;;;;;;;;;;5053278;28;20016;-76
2023/04/09 05:09:45;;;;;;;23.52;12.32;;;;;;;;;;5053302;28;20365;-77
2023/04/09 05:12:10;;;;;;;27.17;13.32;;;;;;;;;;5052545;28;20029;-77
2023/04/09 05:14:35;;;;;;;24.48;12.75;;;;;;;;;;5053116;28;20049;-77
2023/04/09 05:17:01;;;;;;;26.13;14.15;;;;;;;;;;5053124;28;20039;-77
2023/04/09 05:19:26;;;;;;;27.30;13.57;;;;;;;;;;5053052;28;20079;-77
2023/04/09 05:21:51;;;;;;;25.20;13.82;;;;;;;;;;5053022;28;20036;-77
2023/04/09 05:24:16;;;;;;;22.20;12.75;;;;;;;;;;5053025;28;20083;-77
2023/04/09 05:26:42;;;;;;;26.80;13.80;;;;;;;;;;5053581;28;20033;-77
2023/04/09 05:29:07;;;;;;;24.83;13.52;;;;;;;;;;5052966;28;20029;-77
2023/04/09 05:31:33;;;;;;;27.48;13.85;;;;;;;;;;5053043;28;20131;-76
2023/04/09 05:33:59;;;;;;;23.08;12.98;;;;;;;;;;5053124;28;20025;-76
2023/04/09 05:36:24;;;;;;;25.23;14.45;;;;;;;;;;5051680;28;20499;-77
2023/04/09 05:38:50;;;;;;;23.50;13.48;;;;;;;;;;5052896;28;20056;-76
2023/04/09 05:41:15;;;;;;;22.40;12.82;;;;;;;;;;5051497;28;20024;-77
2023/04/09 05:43:41;;;;;;;25.35;13.07;;;;;;;;;;5051535;28;20025;-76
2023/04/09 05:46:06;;;;;;;23.60;13.48;;;;;;;;;;5053249;28;20035;-76
2023/04/09 05:48:35;;;;;;;24.48;13.77;;;;;;;;;;5052742;28;20024;-76
2023/04/09 05:51:01;;;;;;;24.92;14.23;;;;;;;;;;5052359;28;20373;-76
2023/04/09 05:53:26;;;;;;;26.65;14.45;;;;;;;;;;5052766;28;20025;-76
2023/04/09 05:55:51;;;;;;;26.60;14.32;;;;;;;;;;5052646;28;20530;-76
2023/04/09 05:58:20;;;;;;;23.80;14.60;;;;;;;;;;5052706;28;20484;-76
2023/04/09 06:00:45;;;;;;;26.00;14.13;;;;;;;;;;5052837;28;20049;-76
2023/04/09 06:03:10;;;;;;;23.58;13.52;;;;;;;;;;5053185;28;20049;-76
2023/04/09 06:05:36;;;;;;;25.90;13.87;;;;;;;;;;5052644;28;20063;-76
2023/04/09 06:08:01;;;;;;;24.70;14.55;;;;;;;;;;5052571;28;20246;-76
2023/04/09 06:10:26;;;;;;;25.05;13.95;;;;;;;;;;5052576;28;20066;-75
2023/04/09 06:12:52;;;;;;;25.05;13.60;;;;;;;;;;5052906;28;20477;-75
2023/04/09 06:15:17;;;;;;;27.48;14.65;;;;;;;;;;5052473;28;20120;-76
2023/04/09 06:17:43;;;;;;;27.17;14.73;;;;;;;;;;5051837;28;20049;-76
2023/04/09 06:20:08;;;;;;;28.83;14.45;;;;;;;;;;5051273;28;20033;-75
2023/04/09 06:22:34;;;;;;;24.48;13.38;;;;;;;;;;5051429;28;20029;-76
2023/04/09 06:24:59;;;;;;;26.45;14.52;;;;;;;;;;5054793;28;20158;-76
2023/04/09 06:27:25;;;;;;;25.15;14.02;;;;;;;;;;5056275;28;20376;-76
2023/04/09 06:29:50;;;;;;;23.95;13.75;;;;;;;;;;5056630;28;20078;-77
2023/04/09 06:32:16;;;;;;;26.25;13.70;;;;;;;;;;5056272;28;20098;-76
2023/04/09 06:34:41;;;;;;;27.75;14.07;;;;;;;;;;5054774;28;20079;-76
2023/04/09 06:37:06;;;;;;;24.50;14.00;;;;;;;;;;5056323;28;20043;-76
2023/04/09 06:39:32;;;;;;;24.33;13.30;;;;;;;;;;5056520;28;20297;-76
2023/04/09 06:41:57;;;;;;;36.72;15.43;;;;;;;;;;5056136;28;20029;-76
2023/04/09 06:44:23;;;;;;;25.02;13.93;;;;;;;;;;5054749;28;20499;-76
2023/04/09 06:46:50;;;;;;;24.52;14.38;;;;;;;;;;5056644;28;20021;-76
2023/04/09 06:49:16;;;;;;;26.17;14.85;;;;;;;;;;5056120;28;20028;-77
2023/04/09 06:51:41;;;;;;;26.63;14.97;;;;;;;;;;5055971;28;20017;-77
2023/04/09 06:54:06;;;;;;;24.88;14.30;;;;;;;;;;5055769;28;20376;-76
2023/04/09 06:56:32;;;;;;;24.80;13.88;;;;;;;;;;5055796;28;20056;-76
2023/04/09 06:58:57;;;;;;;26.50;14.80;;;;;;;;;;5055782;28;20122;-76
2023/04/09 07:01:24;;;;;;;26.53;15.23;;;;;;;;;;5055687;28;20071;-75
2023/04/09 07:03:49;;;;;;;28.08;15.10;;;;;;;;;;5055695;28;20258;-76
2023/04/09 07:06:14;;;;;;;27.02;15.40;;;;;;;;;;5055591;28;20027;-76
2023/04/09 07:08:40;;;;;;;23.15;14.00;;;;;;;;;;5055501;28;20104;-75
2023/04/09 07:11:05;;;;;;;29.40;15.50;;;;;;;;;;5055196;28;20396;-75
2023/04/09 07:13:31;;;;;;;29.40;15.57;;;;;;;;;;5055789;28;20606;-75
2023/04/09 07:15:56;;;;;;;26.80;15.27;;;;;;;;;;5053997;28;20025;-76
2023/04/09 07:18:22;;;;;;;23.52;14.63;;;;;;;;;;5055384;28;20029;-77
2023/04/09 07:20:47;;;;;;;27.27;15.10;;;;;;;;;;5055771;28;20039;-76
2023/04/09 07:23:12;;;;;;;30.83;15.15;;;;;;;;;;5055821;28;20348;-76
2023/04/09 07:25:37;;;;;;;23.42;14.27;;;;;;;;;;5055225;28;20055;-76
2023/04/09 07:28:03;;;;;;;27.42;14.60;;;;;;;;;;5055323;28;20052;-76
2023/04/09 07:30:28;;;;;;;25.75;14.63;;;;;;;;;;5055372;28;20044;-76
2023/04/09 07:32:53;;;;;;;28.65;15.85;;;;;;;;;;5054938;28;20037;-76
2023/04/09 07:35:19;;;;;;;26.05;15.32;;;;;;;;;;5054158;28;20392;-77
2023/04/09 07:37:45;;;;;;;26.23;15.25;;;;;;;;;;5054900;28;20486;-77
2023/04/09 07:40:10;;;;;;;27.17;16.23;;;;;;;;;;5055018;28;20068;-77
2023/04/09 07:42:37;;;;;;;31.27;15.68;;;;;;;;;;5054841;28;20488;-76
2023/04/09 07:45:03;;;;;;;24.75;14.85;;;;;;;;;;5054834;28;20021;-77
2023/04/09 07:47:28;;;;;;;28.75;15.57;;;;;;;;;;5055075;28;20028;-77
2023/04/09 07:49:54;;;;;;;28.60;15.77;;;;;;;;;;5053725;28;20027;-77
2023/04/09 07:52:19;;;;;;;27.88;15.52;;;;;;;;;;5054619;28;20075;-77
2023/04/09 07:54:44;;;;;;;27.90;16.05;;;;;;;;;;5055357;28;20025;-77
2023/04/09 07:57:10;;;;;;;25.53;14.77;;;;;;;;;;5054860;28;20361;-75
2023/04/09 07:59:35;;;;;;;25.48;14.80;;;;;;;;;;5054499;28;20689;-76
2023/04/09 08:02:01;;;;;;;30.63;15.57;;;;;;;;;;5054486;28;20021;-76
2023/04/09 08:04:26;;;;;;;29.42;15.77;;;;;;;;;;5054367;28;20024;-76
2023/04/09 08:06:52;;;;;;;26.65;14.65;;;;;;;;;;5053829;28;20021;-76
2023/04/09 08:09:18;;;;;;;26.50;15.23;;;;;;;;;;5054430;28;20031;-76
2023/04/09 08:11:44;;;;;;;22.77;14.65;;;;;;;;;;5054185;28;20029;-76
2023/04/09 08:14:14;;;;;;;23.92;14.48;;;;;;;;;;5054164;28;20033;-76
2023/04/09 08:16:41;;;;;;;24.95;14.70;;;;;;;;;;5054141;28;20049;-77
2023/04/09 08:19:08;;;;;;;32.58;15.10;;;;;;;;;;5053969;28;20040;-77
2023/04/09 08:21:36;;;;;;;24.20;14.15;;;;;;;;;;5053926;28;20032;-76
2023/04/09 08:24:03;;;;;;;26.25;14.60;;;;;;;;;;5054002;28;20025;-76
2023/04/09 08:26:29;;;;;;;25.35;14.85;;;;;;;;;;5053897;28;20108;-76
2023/04/09 08:28:55;;;;;;;25.38;15.27;;;;;;;;;;5053972;28;20025;-76
2023/04/09 08:31:20;;;;;;;26.60;15.95;;;;;;;;;;5052561;28;20017;-77
2023/04/09 08:33:45;;;;;;;29.67;16.13;;;;;;;;;;5053864;28;20116;-77
2023/04/09 08:36:11;;;;;;;28.23;15.35;;;;;;;;;;5053855;28;20055;-77
2023/04/09 08:38:36;;;;;;;25.02;13.68;;;;;;;;;;5054327;28;20361;-76
2023/04/09 08:41:01;;;;;;;22.73;12.80;;;;;;;;;;5054409;28;20025;-76
2023/04/09 08:43:27;;;;;;;26.27;14.97;;;;;;;;;;5053771;28;20316;-76
2023/04/09 08:45:56;;;;;;;23.25;14.27;;;;;;;;;;5053618;28;20258;-76
2023/04/09 08:48:23;;;;;;;24.42;14.02;;;;;;;;;;5053795;28;20047;-77
2023/04/09 08:50:48;;;;;;;24.35;14.65;;;;;;;;;;5053441;28;20063;-77
2023/04/09 08:53:15;;;;;;;26.30;15.10;;;;;;;;;;5052176;28;20384;-77
2023/04/09 08:55:44;;;;;;;25.92;14.65;;;;;;;;;;5053386;28;20021;-76
2023/04/09 08:58:09;;;;;;;26.50;15.05;;;;;;;;;;5053524;28;20099;-76
2023/04/09 09:00:35;;;;;;;24.95;14.30;;;;;;;;;;5053602;28;20020;-76
2023/04/09 09:03:09;;;;;;;24.60;15.10;;;;;;;;;;5052134;28;20373;-76
2023/04/09 09:05:41;;;;;;;25.15;14.63;;;;;;;;;;5053256;28;20020;-76
2023/04/09 09:08:12;;;;;;;25.83;14.82;;;;;;;;;;5053804;28;20032;-76
2023/04/09 09:10:39;;;;;;;27.05;14.25;;;;;;;;;;5051950;28;20027;-75
2023/04/09 09:13:24;;;;;;;22.13;14.55;;;;;;;;;;5052929;28;20025;-76
2023/04/09 09:15:54;;;;;;;24.23;14.50;;;;;;;;;;5053350;28;20389;-77
2023/04/09 09:18:39;;;;;;;23.05;13.77;;;;;;;;;;5052214;28;20048;-76
2023/04/09 09:21:11;;;;;;;23.58;14.05;;;;;;;;;;5053260;28;20460;-76
2023/04/09 09:23:37;;;;;;;22.05;13.05;;;;;;;;;;5053329;28;20388;-76
2023/04/09 09:26:23;;;;;;;22.02;13.77;;;;;;;;;;5051803;28;20021;-76
2023/04/09 09:28:49;;;;;;;21.85;13.65;;;;;;;;;;5051745;28;20049;-76
2023/04/09 09:31:17;;;;;;;23.13;14.48;;;;;;;;;;5053079;28;20020;-76
2023/04/09 09:33:42;;;;;;;25.77;14.43;;;;;;;;;;5051628;28;20039;-76
2023/04/09 09:36:08;;;;;;;25.00;14.00;;;;;;;;;;5052843;28;20480;-76
2023/04/09 09:38:51;;;;;;;23.10;13.32;;;;;;;;;;5052923;28;20029;-76
2023/04/09 09:41:17;;;;;;;23.42;13.35;;;;;;;;;;5051523;28;20025;-76
2023/04/09 09:43:42;;;;;;;22.23;13.68;;;;;;;;;;5052798;28;20068;-76
2023/04/09 09:46:09;;;;;;;20.52;13.02;;;;;;;;;;5051492;28;20017;-76
2023/04/09 09:48:34;;;;;;;23.05;13.30;;;;;;;;;;5052742;28;20075;-76
2023/04/09 09:51:03;;;;;;;21.88;13.25;;;;;;;;;;5052588;28;20025;-76
2023/04/09 09:53:30;;;;;;;23.08;12.60;;;;;;;;;;5052682;28;20108;-76
2023/04/09 09:55:58;;;;;;;19.75;13.13;;;;;;;;;;5052700;28;20029;-76
2023/04/09 09:58:30;;;;;;;23.63;13.68;;;;;;;;;;5053744;28;20025;-76
2023/04/09 10:00:56;;;;;;;18.73;12.70;;;;;;;;;;5056660;28;21410;-76
2023/04/09 10:03:24;;;;;;;22.02;13.75;;;;;;;;;;5056770;28;20024;-76
2023/04/09 10:05:52;;;;;;;19.42;12.95;;;;;;;;;;5056877;28;20021;-76
2023/04/09 10:08:18;;;;;;;18.42;12.10;;;;;;;;;;5057007;28;20488;-77
2023/04/09 10:10:44;;;;;;;18.75;12.07;;;;;;;;;;5056664;28;20025;-76
2023/04/09 10:13:14;;;;;;;17.77;11.20;;;;;;;;;;5056396;28;20035;-76
2023/04/09 10:15:41;;;;;;;17.63;12.05;;;;;;;;;;5055136;28;20480;-76
2023/04/09 10:18:07;;;;;;;20.48;12.05;;;;;;;;;;5056454;28;20399;-75
2023/04/09 10:20:42;;;;;;;18.42;11.77;;;;;;;;;;5056403;28;20075;-75
2023/04/09 10:23:14;;;;;;;24.30;12.77;;;;;;;;;;5055061;28;20444;-76
2023/04/09 10:25:40;;;;;;;18.95;12.15;;;;;;;;;;5056300;28;20032;-76
2023/04/09 10:28:16;;;;;;;20.90;12.75;;;;;;;;;;5056156;28;20059;-76
2023/04/09 10:30:42;;;;;;;21.00;11.60;;;;;;;;;;5055195;28;20074;-76
2023/04/09 10:33:12;;;;;;;19.65;12.73;;;;;;;;;;5054746;28;20128;-75
2023/04/09 10:35:38;;;;;;;20.42;12.82;;;;;;;;;;5056391;28;20025;-76
2023/04/09 10:38:06;;;;;;;20.35;13.05;;;;;;;;;;5054845;28;20163;-76
2023/04/09 10:40:31;;;;;;;23.38;13.80;;;;;;;;;;5055965;28;20039;-76
2023/04/09 10:42:58;;;;;;;21.58;13.40;;;;;;;;;;5055904;28;20021;-76
2023/04/09 10:45:25;;;;;;;21.73;13.10;;;;;;;;;;5055993;28;20060;-76
2023/04/09 10:47:50;;;;;;;20.33;13.10;;;;;;;;;;5055910;28;20028;-76
2023/04/09 10:50:31;;;;;;;20.85;12.32;;;;;;;;;;5054551;28;20017;-76
2023/04/09 10:52:59;;;;;;;19.75;12.68;;;;;;;;;;5054762;28;20534;-76
2023/04/09 10:55:36;;;;;;;24.45;14.20;;;;;;;;;;5055807;28;20067;-76
2023/04/09 10:58:05;;;;;;;23.20;14.40;;;;;;;;;;5055559;28;20035;-76
2023/04/09 11:00:58;;;;;;;20.73;13.85;;;;;;;;;;5055927;28;20021;-76
2023/04/09 11:03:26;;;;;;;21.88;13.63;;;;;;;;;;5054371;28;20102;-76
2023/04/09 11:06:04;;;;;;;22.45;14.50;;;;;;;;;;5055479;28;20369;-76
2023/04/09 11:08:32;;;;;;;23.08;14.45;;;;;;;;;;5054317;28;20020;-76
2023/04/09 11:10:59;;;;;;;21.90;13.88;;;;;;;;;;5054028;28;20035;-76
2023/04/09 11:13:25;;;;;;;24.08;14.95;;;;;;;;;;5054129;28;20017;-76
2023/04/09 11:15:50;;;;;;;22.27;13.32;;;;;;;;;;5055712;28;20029;-76
2023/04/09 11:18:20;;;;;;;18.65;13.18;;;;;;;;;;5055280;28;20060;-76
2023/04/09 11:20:45;;;;;;;19.33;11.38;;;;;;;;;;5055506;28;20024;-76
2023/04/09 11:23:12;;;;;;;20.20;13.05;;;;;;;;;;5055254;28;20435;-76
2023/04/09 11:25:38;;;;;;;18.27;12.02;;;;;;;;;;5055516;28;20025;-77
2023/04/09 11:28:03;;;;;;;18.40;12.40;;;;;;;;;;5055036;28;20033;-75
2023/04/09 11:30:30;;;;;;;20.70;12.70;;;;;;;;;;5055043;28;20258;-76
2023/04/09 11:32:55;;;;;;;20.15;12.80;;;;;;;;;;5055206;28;20025;-77
2023/04/09 11:35:21;;;;;;;18.70;12.25;;;;;;;;;;5055235;28;20024;-76
2023/04/09 11:37:48;;;;;;;18.85;11.70;;;;;;;;;;5055128;28;20060;-76
2023/04/09 11:40:15;;;;;;;17.83;11.57;;;;;;;;;;5055076;28;20092;-76
2023/04/09 11:42:41;;;;;;;16.35;10.85;;;;;;;;;;5054836;28;20031;-75
2023/04/09 11:45:08;;;;;;;16.15;11.32;;;;;;;;;;5054772;28;20021;-77
2023/04/09 11:47:34;;;;;;;17.10;11.10;;;;;;;;;;5054761;28;20021;-77
2023/04/09 11:49:59;;;;;;;18.15;11.43;;;;;;;;;;5055045;28;20116;-76
2023/04/09 11:52:26;;;;;;;14.98;11.13;;;;;;;;;;5053278;28;20111;-77
2023/04/09 11:54:52;;;;;;;17.00;11.25;;;;;;;;;;5061700;28;20021;-75
2023/04/09 11:57:17;;;;;;;17.65;11.77;;;;;;;;;;5054716;28;20078;-75
2023/04/09 11:59:42;;;;;;;15.50;11.17;;;;;;;;;;5054457;28;20116;-76
2023/04/09 12:02:07;;;;;;;16.25;10.88;;;;;;;;;;5054368;28;20309;-77
2023/04/09 12:04:33;;;;;;;16.38;10.70;;;;;;;;;;5053092;28;20025;-76
2023/04/09 12:06:58;;;;;;;15.25;10.20;;;;;;;;;;5054323;28;20476;-76
2023/04/09 12:09:24;;;;;;;15.52;10.13;;;;;;;;;;5054365;28;20392;-76
2023/04/09 12:11:49;;;;;;;15.20;10.13;;;;;;;;;;5052719;28;20029;-76
2023/04/09 12:14:16;;;;;;;15.32;9.50;;;;;;;;;;5054202;28;20029;-76
2023/04/09 12:16:44;;;;;;;14.88;9.02;;;;;;;;;;5054188;28;20036;-76
2023/04/09 12:19:11;;;;;;;14.45;9.05;;;;;;;;;;5054471;28;20032;-76
2023/04/09 12:21:53;;;;;;;13.57;8.55;;;;;;;;;;5053763;28;20024;-76
2023/04/09 12:24:20;;;;;;;13.35;8.73;;;;;;;;;;5052897;28;20423;-76
2023/04/09 12:26:46;;;;;;;15.13;9.50;;;;;;;;;;5054322;28;20594;-76
2023/04/09 12:29:16;;;;;;;13.05;8.95;;;;;;;;;;5054244;28;20115;-76
2023/04/09 12:31:42;;;;;;;15.02;9.82;;;;;;;;;;5054249;28;20163;-76
2023/04/09 12:34:08;;;;;;;20.08;11.85;;;;;;;;;;5053814;28;20108;-76
2023/04/09 12:36:33;;;;;;;16.90;11.85;;;;;;;;;;5053962;28;20464;-76
2023/04/09 12:38:58;;;;;;;16.73;11.85;;;;;;;;;;5053701;28;20069;-76
2023/04/09 12:41:24;;;;;;;17.60;11.98;;;;;;;;;;5053941;28;20025;-76
2023/04/09 12:43:49;;;;;;;18.10;12.05;;;;;;;;;;5052459;28;20494;-76
2023/04/09 12:46:15;;;;;;;19.58;12.82;;;;;;;;;;5052399;28;20032;-76
2023/04/09 12:48:40;;;;;;;19.02;13.18;;;;;;;;;;5053814;28;20021;-76
2023/04/09 12:51:05;;;;;;;23.08;12.60;;;;;;;;;;5053601;28;20162;-76
2023/04/09 12:53:31;;;;;;;20.70;12.48;;;;;;;;;;5053758;28;20021;-76
2023/04/09 12:55:56;;;;;;;17.60;12.32;;;;;;;;;;5053500;28;20035;-76
2023/04/09 12:58:22;;;;;;;19.13;12.63;;;;;;;;;;5053980;28;20052;-76
2023/04/09 13:00:47;;;;;;;17.27;11.20;;;;;;;;;;5053747;28;20059;-76
2023/04/09 13:03:15;;;;;;;16.90;9.77;;;;;;;;;;5052002;28;20266;-76
2023/04/09 13:05:40;;;;;;;18.65;11.88;;;;;;;;;;5053309;28;20261;-75
2023/04/09 13:08:05;;;;;;;16.67;11.45;;;;;;;;;;5053382;28;20025;-76
2023/04/09 13:10:31;;;;;;;22.80;12.67;;;;;;;;;;5053254;28;20032;-76
2023/04/09 13:12:56;;;;;;;17.50;11.70;;;;;;;;;;5053100;28;20265;-76
2023/04/09 13:15:21;;;;;;;17.30;11.33;;;;;;;;;;5053156;28;20021;-76
2023/04/09 13:17:47;;;;;;;17.30;11.93;;;;;;;;;;5053404;28;20265;-76
2023/04/09 13:20:12;;;;;;;17.67;11.65;;;;;;;;;;5052964;28;20082;-76
2023/04/09 13:22:37;;;;;;;19.35;12.43;;;;;;;;;;5053014;28;20396;-76
2023/04/09 13:25:03;;;;;;;20.20;13.90;;;;;;;;;;5053021;28;20435;-76
2023/04/09 13:27:29;;;;;;;18.13;12.82;;;;;;;;;;5052880;28;20610;-76
2023/04/09 13:29:54;;;;;;;20.83;13.13;;;;;;;;;;5052977;28;20033;-76
2023/04/09 13:32:21;;;;;;;17.27;10.98;;;;;;;;;;5052193;28;20422;-76
2023/04/09 13:34:46;;;;;;;21.80;14.10;;;;;;;;;;5052450;28;20104;-76
2023/04/09 13:37:11;;;;;;;21.70;14.60;;;;;;;;;;5052821;28;20116;-76
2023/04/09 13:39:36;;;;;;;22.85;14.23;;;;;;;;;;5051549;28;20300;-76
2023/04/09 13:42:02;;;;;;;19.30;13.07;;;;;;;;;;5052770;28;20056;-76
2023/04/09 13:44:27;;;;;;;21.48;14.02;;;;;;;;;;5051475;28;20258;-76
2023/04/09 13:46:53;;;;;;;19.17;13.15;;;;;;;;;;5052857;28;20403;-76
2023/04/09 13:49:18;;;;;;;21.73;13.65;;;;;;;;;;5052717;28;20032;-76
2023/04/09 13:51:43;;;;;;;19.00;13.13;;;;;;;;;;5052723;28;20546;-76
2023/04/09 13:54:10;;;;;;;21.13;13.63;;;;;;;;;;5052698;28;20041;-76
2023/04/09 13:56:35;;;;;;;22.45;14.68;;;;;;;;;;5052752;28;20021;-76
2023/04/09 13:59:01;;;;;;;23.38;14.85;;;;;;;;;;5052665;28;20432;-76
2023/04/09 14:01:27;;;;;;;21.27;14.43;;;;;;;;;;5052854;28;20425;-75
2023/04/09 14:03:52;;;;;;;20.30;12.93;;;;;;;;;;5051367;28;20078;-76
2023/04/09 14:06:17;;;;;;;19.27;12.77;;;;;;;;;;5052614;28;20060;-75
2023/04/09 14:08:43;;;;;;;17.02;12.15;;;;;;;;;;5052594;28;20032;-75
2023/04/09 14:11:09;;;;;;;17.77;11.93;;;;;;;;;;5052401;28;20124;-75
2023/04/09 14:13:35;;;;;;;18.63;12.45;;;;;;;;;;5051223;28;20031;-76